Annandale Estates, Indiana
Current Conditions -  °F | °C
As of 4:15 PM on Thursday 23 Oct 2014 (Local Time) from K1II Reporting Station
Haze Haze  
Wind Chill: 59°   Ceiling: Unl
Heat Index: 59°   Visibility: 5mi
Dew Point: 41°   Wind: 5mph
Humidity: 51%   Direction: 70°ENE
Pressure: 30.15"   Gusts: NA
Location:  39.193°N, 86.2182°W
Report Text: K1II 232015Z AUTO 07004KT 5SM HZ CLR 15/05 A3015 RMK AO2
Loading
Personal Weather Stations






























Interactive Weather Map
Tropical Storm Tracking
New forecast layout! Learn more

10-Day Weather Forecast

Advertisements
Track Severe Weather on mobile